^^
Station Historical Data
Daily Summary for August 21, 2017 Units:  English    Metric   Both
« Previous Day
Next Day »
Daily Weekly Monthly Yearly Custom
  High: Low: Average:
Temperature: 85.7 °F 63.2 °F 75.7 °F
Dew Point: 70.7 °F 60.8 °F 65.7 °F
Humidity: 93% 48% 73%
Wind Speed: 6.0mph 0.0mph 1.6mph
Wind Gust: 12.0mph - -
Wind- - SSW
Pressure: 30.21 in 30.09 in -
Precipitation: 0.00 in    
Historical Graphs
 
 
Tabular Data for August 21, 2017
Time Temperature Dew Point Pressure Wind Wind Speed Wind Gust Humidity Rainfall Rate (Hourly) Conditions
00:00 66.7 °F 62.7 °F 30.16 in Calm     87% 0.00 in CLR
00:15 66.6 °F 62.6 °F 30.17 in Calm     87% 0.00 in CLR
00:30 66.8 °F 62.1 °F 30.17 in Calm     85% 0.00 in CLR
00:45 66.9 °F 61.9 °F 30.17 in Calm     84% 0.00 in CLR
01:00 66.7 °F 61.7 °F 30.17 in Calm     84% 0.00 in CLR
02:15 66.0 °F 61.4 °F 30.17 in Calm     85% 0.00 in CLR
02:30 65.3 °F 61.0 °F 30.17 in Calm     86% 0.00 in CLR
02:45 64.9 °F 61.3 °F 30.17 in Calm     88% 0.00 in CLR
03:00 64.3 °F 61.0 °F 30.16 in Calm     89% 0.00 in CLR
03:15 64.4 °F 61.7 °F 30.17 in Calm     91% 0.00 in CLR
03:30 64.9 °F 62.2 °F 30.17 in Calm     91% 0.00 in CLR
03:45 66.3 °F 62.3 °F 30.17 in Calm   1.0 mph 87% 0.00 in CLR
04:00 66.6 °F 61.9 °F 30.17 in Calm     85% 0.00 in CLR
04:15 65.9 °F 61.6 °F 30.17 in Calm     86% 0.00 in CLR
04:30 65.0 °F 61.0 °F 30.17 in Calm     87% 0.00 in CLR
04:45 64.9 °F 61.3 °F 30.17 in Calm     88% 0.00 in CLR
05:00 64.8 °F 61.5 °F 30.17 in Calm     89% 0.00 in CLR
05:15 64.1 °F 61.1 °F 30.18 in Calm     90% 0.00 in CLR
05:30 63.9 °F 61.2 °F 30.18 in Calm     91% 0.00 in CLR
05:45 63.2 °F 60.8 °F 30.18 in Calm     92% 0.00 in CLR
06:00 63.7 °F 61.7 °F 30.19 in Calm     93% 0.00 in CLR
06:15 63.7 °F 61.6 °F 30.19 in Calm     93% 0.00 in CLR
06:30 64.4 °F 62.4 °F 30.20 in Calm   1.0 mph 93% 0.00 in CLR
06:45 64.9 °F 62.5 °F 30.20 in Calm   1.0 mph 92% 0.00 in CLR
07:00 65.3 °F 62.6 °F 30.20 in Calm   1.0 mph 91% 0.00 in CLR
07:15 66.0 °F 63.0 °F 30.20 in Calm   2.0 mph 90% 0.00 in CLR
07:30 66.8 °F 63.4 °F 30.20 in Calm   2.0 mph 89% 0.00 in CLR
07:45 67.3 °F 63.6 °F 30.21 in South 1.0 mph 3.0 mph 88% 0.00 in CLR
08:00 67.9 °F 64.3 °F 30.21 in Calm   3.0 mph 88% 0.00 in CLR
08:15 68.8 °F 64.7 °F 30.21 in SW 1.0 mph 4.0 mph 87% 0.00 in CLR
08:30 70.0 °F 64.6 °F 30.20 in South 2.0 mph 5.0 mph 83% 0.00 in CLR
08:45 71.2 °F 65.1 °F 30.20 in SSE 1.0 mph 6.0 mph 81% 0.00 in CLR
09:00 72.7 °F 65.1 °F 30.20 in Calm   5.0 mph 77% 0.00 in CLR
09:15 73.0 °F 65.0 °F 30.20 in SSW 1.0 mph 6.0 mph 76% 0.00 in CLR
09:30 73.3 °F 64.9 °F 30.20 in Calm   4.0 mph 75% 0.00 in CLR
09:45 73.9 °F 65.1 °F 30.19 in South 2.0 mph 6.0 mph 74% 0.00 in CLR
10:00 75.0 °F 65.8 °F 30.19 in SSW 1.0 mph 6.0 mph 73% 0.00 in CLR
10:15 76.7 °F 66.2 °F 30.20 in South 2.0 mph 5.0 mph 70% 0.00 in CLR
10:30 78.0 °F 66.2 °F 30.20 in WSW 1.0 mph 5.0 mph 67% 0.00 in CLR
10:45 79.5 °F 67.2 °F 30.20 in Calm   3.0 mph 66% 0.00 in CLR
11:00 80.3 °F 67.0 °F 30.20 in South 2.0 mph 5.0 mph 64% 0.00 in CLR
11:15 81.3 °F 67.5 °F 30.20 in SW 1.0 mph 6.0 mph 63% 0.00 in CLR
11:30 81.7 °F 66.9 °F 30.19 in WSW 2.0 mph 7.0 mph 61% 0.00 in CLR
11:45 82.1 °F 66.4 °F 30.19 in SW 3.0 mph 9.0 mph 59% 0.00 in CLR
12:00 83.6 °F 66.2 °F 30.18 in SW 5.0 mph 8.0 mph 56% 0.00 in CLR
12:15 83.2 °F 65.4 °F 30.17 in SW 5.0 mph 9.0 mph 55% 0.00 in CLR
12:30 83.8 °F 63.7 °F 30.17 in SSW 3.0 mph 9.0 mph 51% 0.00 in CLR
12:45 83.9 °F 63.2 °F 30.17 in SW 5.0 mph 12.0 mph 50% 0.00 in CLR
13:00 84.5 °F 63.8 °F 30.16 in South 2.0 mph 7.0 mph 50% 0.00 in CLR
13:15 84.3 °F 63.6 °F 30.16 in SSW 3.0 mph 7.0 mph 50% 0.00 in CLR
13:30 85.5 °F 63.6 °F 30.16 in SSW 3.0 mph 7.0 mph 48% 0.00 in CLR
13:45 84.9 °F 63.6 °F 30.15 in SW 1.0 mph 7.0 mph 49% 0.00 in CLR
14:00 84.7 °F 64.0 °F 30.15 in SW 3.0 mph 8.0 mph 50% 0.00 in CLR
14:15 84.9 °F 64.7 °F 30.14 in SW 3.0 mph 7.0 mph 51% 0.00 in FEW
14:30 84.4 °F 65.9 °F 30.14 in SSW 1.0 mph 8.0 mph 54% 0.00 in FEW
14:45 83.7 °F 65.3 °F 30.13 in SSW 2.0 mph 7.0 mph 54% 0.00 in FEW
15:00 83.3 °F 66.0 °F 30.13 in SW 2.0 mph 6.0 mph 56% 0.00 in FEW
15:15 83.6 °F 67.3 °F 30.13 in SSW 2.0 mph 4.0 mph 58% 0.00 in FEW
15:30 83.9 °F 68.0 °F 30.12 in SSW 5.0 mph 9.0 mph 59% 0.00 in FEW
15:45 85.6 °F 69.1 °F 30.13 in West 3.0 mph 7.0 mph 58% 0.00 in FEW
16:00 85.7 °F 68.2 °F 30.12 in SW 5.0 mph 12.0 mph 56% 0.00 in FEW
16:15 84.8 °F 67.4 °F 30.12 in SSW 5.0 mph 12.0 mph 56% 0.00 in SCT
16:30 85.1 °F 67.7 °F 30.12 in SW 5.0 mph 10.0 mph 56% 0.00 in SCT
16:45 84.8 °F 67.8 °F 30.12 in SW 6.0 mph 12.0 mph 57% 0.00 in SCT
17:00 83.9 °F 68.0 °F 30.12 in SW 2.0 mph 12.0 mph 59% 0.00 in SCT
17:15 83.5 °F 68.6 °F 30.12 in SSW 3.0 mph 7.0 mph 61% 0.00 in FEW
17:30 84.4 °F 69.0 °F 30.12 in SW 5.0 mph 8.0 mph 60% 0.00 in FEW
17:45 84.3 °F 68.9 °F 30.11 in SW 1.0 mph 8.0 mph 60% 0.00 in FEW
18:00 84.7 °F 69.8 °F 30.10 in South 1.0 mph 6.0 mph 61% 0.00 in FEW
18:15 84.7 °F 69.8 °F 30.10 in Calm   4.0 mph 61% 0.00 in FEW
18:30 84.0 °F 69.6 °F 30.09 in Calm   5.0 mph 62% 0.00 in FEW
18:45 82.3 °F 68.9 °F 30.09 in SSW 1.0 mph 10.0 mph 64% 0.00 in FEW
19:00 81.6 °F 68.7 °F 30.09 in SSW 2.0 mph 7.0 mph 65% 0.00 in FEW
19:15 80.8 °F 68.8 °F 30.09 in Calm   6.0 mph 67% 0.00 in FEW
19:30 80.4 °F 68.9 °F 30.09 in South 2.0 mph 10.0 mph 68% 0.00 in FEW
19:45 79.9 °F 68.8 °F 30.10 in South 3.0 mph 7.0 mph 69% 0.00 in FEW
20:00 79.4 °F 68.8 °F 30.10 in South 5.0 mph 8.0 mph 70% 0.00 in FEW
20:15 79.3 °F 69.1 °F 30.10 in South 2.0 mph 12.0 mph 71% 0.00 in FEW
20:30 79.0 °F 69.2 °F 30.10 in South 2.0 mph 9.0 mph 72% 0.00 in FEW
20:45 78.5 °F 68.8 °F 30.10 in Calm   8.0 mph 72% 0.00 in FEW
21:00 78.2 °F 69.2 °F 30.10 in South 2.0 mph 7.0 mph 74% 0.00 in FEW
21:15 77.8 °F 69.2 °F 30.11 in South 3.0 mph 6.0 mph 75% 0.00 in CLR
21:30 77.8 °F 70.0 °F 30.11 in SSW 5.0 mph 8.0 mph 77% 0.00 in CLR
21:45 77.9 °F 70.1 °F 30.11 in South 3.0 mph 8.0 mph 77% 0.00 in CLR
22:00 77.8 °F 70.4 °F 30.10 in SSE 3.0 mph 9.0 mph 78% 0.00 in CLR
22:15 77.5 °F 70.1 °F 30.10 in SSW 5.0 mph 9.0 mph 78% 0.00 in CLR
22:30 77.3 °F 70.3 °F 30.09 in SSW 2.0 mph 7.0 mph 79% 0.00 in CLR
22:45 77.0 °F 70.3 °F 30.10 in South 1.0 mph 6.0 mph 80% 0.00 in CLR
23:00 76.7 °F 70.1 °F 30.10 in SSW 1.0 mph 8.0 mph 80% 0.00 in CLR
23:30 76.1 °F 70.6 °F 30.09 in SSW 2.0 mph 6.0 mph 83% 0.00 in CLR
23:45 75.9 °F 70.7 °F 30.09 in SW 1.0 mph 9.0 mph 84% 0.00 in CLR
TarryTown NY Weather
Compliments of Weather Underground - 1.5 mb